sensor_id;sensor_type;location;lat;lon;timestamp;pressure;altitude;pressure_sealevel;temperature;humidity
57594;BME280;43423;46.510;6.686;2022-08-25T00:00:33;96431.69;;;20.39;52.07
57594;BME280;43423;46.510;6.686;2022-08-25T00:03:08;96426.78;;;20.31;52.25
57594;BME280;43423;46.510;6.686;2022-08-25T00:05:34;96424.28;;;20.41;51.41
57594;BME280;43423;46.510;6.686;2022-08-25T00:08:01;96421.28;;;20.18;52.19
57594;BME280;43423;46.510;6.686;2022-08-25T00:10:27;96420.31;;;20.16;52.08
57594;BME280;43423;46.510;6.686;2022-08-25T00:12:53;96423.13;;;20.16;52.12
57594;BME280;43423;46.510;6.686;2022-08-25T00:15:19;96423.16;;;20.02;52.39
57594;BME280;43423;46.510;6.686;2022-08-25T00:17:46;96425.91;;;20.16;52.52
57594;BME280;43423;46.510;6.686;2022-08-25T00:20:12;96421.00;;;20.08;52.09
57594;BME280;43423;46.510;6.686;2022-08-25T00:22:37;96421.31;;;20.05;52.26
57594;BME280;43423;46.510;6.686;2022-08-25T00:25:04;96417.59;;;20.02;52.30
57594;BME280;43423;46.510;6.686;2022-08-25T00:27:29;96424.94;;;19.92;52.93
57594;BME280;43423;46.510;6.686;2022-08-25T00:29:55;96427.34;;;19.75;53.51
57594;BME280;43423;46.510;6.686;2022-08-25T00:32:20;96416.31;;;19.69;53.60
57594;BME280;43423;46.510;6.686;2022-08-25T00:34:46;96426.84;;;19.63;53.91
57594;BME280;43423;46.510;6.686;2022-08-25T00:37:11;96421.25;;;19.63;53.84
57594;BME280;43423;46.510;6.686;2022-08-25T00:39:38;96420.84;;;19.46;54.19
57594;BME280;43423;46.510;6.686;2022-08-25T00:42:05;96426.53;;;19.40;54.50
57594;BME280;43423;46.510;6.686;2022-08-25T00:44:31;96421.16;;;19.42;54.04
57594;BME280;43423;46.510;6.686;2022-08-25T00:46:59;96420.63;;;19.57;53.73
57594;BME280;43423;46.510;6.686;2022-08-25T00:52:07;96433.69;;;19.75;53.77
57594;BME280;43423;46.510;6.686;2022-08-25T00:57:26;96441.59;;;19.85;53.74
57594;BME280;43423;46.510;6.686;2022-08-25T00:59:54;96446.81;;;19.88;53.47
57594;BME280;43423;46.510;6.686;2022-08-25T01:02:20;96453.59;;;19.93;53.70
57594;BME280;43423;46.510;6.686;2022-08-25T01:04:47;96456.91;;;19.91;53.68
57594;BME280;43423;46.510;6.686;2022-08-25T01:07:14;96457.22;;;19.88;53.14
57594;BME280;43423;46.510;6.686;2022-08-25T01:09:41;96455.75;;;19.87;53.93
57594;BME280;43423;46.510;6.686;2022-08-25T01:12:08;96460.03;;;19.88;54.62
57594;BME280;43423;46.510;6.686;2022-08-25T01:14:34;96461.75;;;19.91;55.04
57594;BME280;43423;46.510;6.686;2022-08-25T01:17:01;96465.50;;;19.93;54.60
57594;BME280;43423;46.510;6.686;2022-08-25T01:19:27;96463.25;;;19.92;54.97
57594;BME280;43423;46.510;6.686;2022-08-25T01:21:54;96467.94;;;19.97;55.45
57594;BME280;43423;46.510;6.686;2022-08-25T01:27:38;96475.00;;;19.98;55.47
57594;BME280;43423;46.510;6.686;2022-08-25T01:30:04;96471.38;;;19.90;55.71
57594;BME280;43423;46.510;6.686;2022-08-25T01:32:32;96461.75;;;19.91;56.37
57594;BME280;43423;46.510;6.686;2022-08-25T01:34:58;96457.88;;;19.94;56.17
57594;BME280;43423;46.510;6.686;2022-08-25T01:37:23;96459.16;;;19.93;56.36
57594;BME280;43423;46.510;6.686;2022-08-25T01:39:49;96449.31;;;19.78;56.47
57594;BME280;43423;46.510;6.686;2022-08-25T01:45:55;96444.94;;;19.83;57.05
57594;BME280;43423;46.510;6.686;2022-08-25T01:48:22;96436.56;;;19.83;57.60
57594;BME280;43423;46.510;6.686;2022-08-25T01:50:47;96444.56;;;19.87;57.29
57594;BME280;43423;46.510;6.686;2022-08-25T01:53:26;96446.06;;;19.88;57.22
57594;BME280;43423;46.510;6.686;2022-08-25T01:55:52;96455.53;;;19.85;57.55
57594;BME280;43423;46.510;6.686;2022-08-25T01:58:31;96452.94;;;19.87;58.01
57594;BME280;43423;46.510;6.686;2022-08-25T02:01:00;96454.03;;;19.84;58.39
57594;BME280;43423;46.510;6.686;2022-08-25T02:03:27;96443.75;;;19.78;58.17
57594;BME280;43423;46.510;6.686;2022-08-25T02:05:54;96455.09;;;19.80;58.08
57594;BME280;43423;46.510;6.686;2022-08-25T02:08:20;96448.03;;;19.79;58.28
57594;BME280;43423;46.510;6.686;2022-08-25T02:10:47;96458.66;;;19.81;58.38
57594;BME280;43423;46.510;6.686;2022-08-25T02:13:14;96454.91;;;19.78;58.98
57594;BME280;43423;46.510;6.686;2022-08-25T02:15:45;96451.47;;;19.72;59.59
57594;BME280;43423;46.510;6.686;2022-08-25T02:18:11;96437.53;;;19.72;59.82
57594;BME280;43423;46.510;6.686;2022-08-25T02:20:37;96446.44;;;19.71;59.63
57594;BME280;43423;46.510;6.686;2022-08-25T02:23:04;96449.13;;;19.76;59.96
57594;BME280;43423;46.510;6.686;2022-08-25T02:25:29;96453.41;;;19.77;59.71
57594;BME280;43423;46.510;6.686;2022-08-25T02:27:55;96446.88;;;19.75;60.34
57594;BME280;43423;46.510;6.686;2022-08-25T02:30:21;96445.50;;;19.68;60.98
57594;BME280;43423;46.510;6.686;2022-08-25T02:32:46;96438.63;;;19.69;60.68
57594;BME280;43423;46.510;6.686;2022-08-25T02:35:12;96435.31;;;19.58;62.06
57594;BME280;43423;46.510;6.686;2022-08-25T02:37:37;96446.78;;;19.54;61.94
57594;BME280;43423;46.510;6.686;2022-08-25T02:40:04;96446.03;;;19.53;61.91
57594;BME280;43423;46.510;6.686;2022-08-25T02:42:30;96435.84;;;19.43;63.08
57594;BME280;43423;46.510;6.686;2022-08-25T02:44:56;96437.69;;;19.40;63.09
57594;BME280;43423;46.510;6.686;2022-08-25T02:47:21;96438.22;;;19.39;63.41
57594;BME280;43423;46.510;6.686;2022-08-25T02:49:47;96444.66;;;19.34;63.58
57594;BME280;43423;46.510;6.686;2022-08-25T02:52:13;96454.19;;;19.25;63.97
57594;BME280;43423;46.510;6.686;2022-08-25T02:54:39;96445.94;;;19.19;64.77
57594;BME280;43423;46.510;6.686;2022-08-25T02:57:05;96445.53;;;19.15;64.78
57594;BME280;43423;46.510;6.686;2022-08-25T02:59:31;96441.25;;;19.14;64.79
57594;BME280;43423;46.510;6.686;2022-08-25T03:01:56;96446.28;;;19.16;64.66
57594;BME280;43423;46.510;6.686;2022-08-25T03:04:22;96436.41;;;19.15;64.87
57594;BME280;43423;46.510;6.686;2022-08-25T03:06:48;96437.59;;;19.19;64.70
57594;BME280;43423;46.510;6.686;2022-08-25T03:09:13;96430.31;;;19.16;65.39
57594;BME280;43423;46.510;6.686;2022-08-25T03:11:39;96432.44;;;19.10;65.59
57594;BME280;43423;46.510;6.686;2022-08-25T03:14:07;96436.72;;;19.11;65.30
57594;BME280;43423;46.510;6.686;2022-08-25T03:16:33;96441.13;;;19.07;65.75
57594;BME280;43423;46.510;6.686;2022-08-25T03:18:59;96424.97;;;19.05;66.28
57594;BME280;43423;46.510;6.686;2022-08-25T03:21:26;96421.19;;;19.03;66.41
57594;BME280;43423;46.510;6.686;2022-08-25T03:23:52;96417.44;;;19.00;66.55
57594;BME280;43423;46.510;6.686;2022-08-25T03:26:17;96410.47;;;19.07;66.49
57594;BME280;43423;46.510;6.686;2022-08-25T03:29:01;96413.56;;;19.03;66.84
57594;BME280;43423;46.510;6.686;2022-08-25T03:31:30;96410.59;;;19.01;66.82
57594;BME280;43423;46.510;6.686;2022-08-25T03:33:57;96419.81;;;18.96;66.59
57594;BME280;43423;46.510;6.686;2022-08-25T03:36:23;96417.34;;;18.92;66.06
57594;BME280;43423;46.510;6.686;2022-08-25T03:38:49;96411.66;;;18.98;64.98
57594;BME280;43423;46.510;6.686;2022-08-25T03:41:18;96417.13;;;19.04;64.89
57594;BME280;43423;46.510;6.686;2022-08-25T03:43:46;96409.63;;;18.99;64.68
57594;BME280;43423;46.510;6.686;2022-08-25T03:46:32;96409.63;;;18.99;64.18
57594;BME280;43423;46.510;6.686;2022-08-25T03:49:00;96413.47;;;19.09;63.72
57594;BME280;43423;46.510;6.686;2022-08-25T03:51:28;96412.31;;;19.04;63.16
57594;BME280;43423;46.510;6.686;2022-08-25T03:53:54;96401.78;;;19.10;62.75
57594;BME280;43423;46.510;6.686;2022-08-25T03:56:21;96403.06;;;19.09;63.11
57594;BME280;43423;46.510;6.686;2022-08-25T03:58:46;96412.41;;;19.12;62.66
57594;BME280;43423;46.510;6.686;2022-08-25T04:01:12;96418.19;;;19.14;63.09
57594;BME280;43423;46.510;6.686;2022-08-25T04:03:38;96408.84;;;19.11;63.20
57594;BME280;43423;46.510;6.686;2022-08-25T04:06:05;96419.59;;;19.07;63.99
57594;BME280;43423;46.510;6.686;2022-08-25T04:08:31;96418.75;;;19.12;63.32
57594;BME280;43423;46.510;6.686;2022-08-25T04:10:57;96426.13;;;19.10;63.27
57594;BME280;43423;46.510;6.686;2022-08-25T04:13:23;96427.63;;;19.11;63.10
57594;BME280;43423;46.510;6.686;2022-08-25T04:15:48;96421.63;;;19.07;63.39
57594;BME280;43423;46.510;6.686;2022-08-25T04:18:14;96417.88;;;19.04;63.19
57594;BME280;43423;46.510;6.686;2022-08-25T04:20:41;96424.97;;;19.05;63.55
57594;BME280;43423;46.510;6.686;2022-08-25T04:23:08;96421.72;;;19.01;63.77
57594;BME280;43423;46.510;6.686;2022-08-25T04:25:38;96417.78;;;18.96;64.07
57594;BME280;43423;46.510;6.686;2022-08-25T04:28:07;96412.31;;;18.91;64.21
57594;BME280;43423;46.510;6.686;2022-08-25T04:30:33;96416.59;;;18.92;64.00
57594;BME280;43423;46.510;6.686;2022-08-25T04:32:58;96409.72;;;18.93;64.22
57594;BME280;43423;46.510;6.686;2022-08-25T04:35:24;96413.38;;;18.88;64.17
57594;BME280;43423;46.510;6.686;2022-08-25T04:37:49;96421.97;;;18.90;64.46
57594;BME280;43423;46.510;6.686;2022-08-25T04:40:15;96424.94;;;18.92;64.30
57594;BME280;43423;46.510;6.686;2022-08-25T04:42:40;96417.03;;;18.83;64.44
57594;BME280;43423;46.510;6.686;2022-08-25T04:45:06;96421.84;;;18.82;64.47
57594;BME280;43423;46.510;6.686;2022-08-25T04:47:36;96409.97;;;18.82;64.40
57594;BME280;43423;46.510;6.686;2022-08-25T04:50:02;96412.41;;;18.85;64.36
57594;BME280;43423;46.510;6.686;2022-08-25T04:52:28;96413.91;;;18.86;64.17
57594;BME280;43423;46.510;6.686;2022-08-25T04:54:53;96413.91;;;18.86;64.64
57594;BME280;43423;46.510;6.686;2022-08-25T04:57:19;96414.13;;;18.75;65.22
57594;BME280;43423;46.510;6.686;2022-08-25T04:59:44;96412.09;;;18.76;65.25
57594;BME280;43423;46.510;6.686;2022-08-25T05:02:10;96420.22;;;18.74;65.61
57594;BME280;43423;46.510;6.686;2022-08-25T05:04:36;96419.16;;;18.77;65.52
57594;BME280;43423;46.510;6.686;2022-08-25T05:07:02;96410.78;;;18.77;64.99
57594;BME280;43423;46.510;6.686;2022-08-25T05:09:28;96402.22;;;18.75;64.58
57594;BME280;43423;46.510;6.686;2022-08-25T05:11:54;96410.78;;;18.77;65.05
57594;BME280;43423;46.510;6.686;2022-08-25T05:14:21;96411.00;;;18.79;64.68
57594;BME280;43423;46.510;6.686;2022-08-25T05:16:47;96413.03;;;18.78;65.36
57594;BME280;43423;46.510;6.686;2022-08-25T05:19:13;96412.75;;;18.82;65.20
57594;BME280;43423;46.510;6.686;2022-08-25T05:21:39;96411.44;;;18.83;65.15
57594;BME280;43423;46.510;6.686;2022-08-25T05:24:04;96414.97;;;18.83;65.45
57594;BME280;43423;46.510;6.686;2022-08-25T05:26:32;96426.88;;;18.84;65.64
57594;BME280;43423;46.510;6.686;2022-08-25T05:29:00;96422.06;;;18.84;65.68
57594;BME280;43423;46.510;6.686;2022-08-25T05:31:27;96434.28;;;18.81;66.01
57594;BME280;43423;46.510;6.686;2022-08-25T05:33:53;96423.88;;;18.82;66.42
57594;BME280;43423;46.510;6.686;2022-08-25T05:36:21;96426.00;;;18.76;66.89
57594;BME280;43423;46.510;6.686;2022-08-25T05:38:47;96421.72;;;18.88;66.06
57594;BME280;43423;46.510;6.686;2022-08-25T05:41:19;96423.03;;;19.00;65.92
57594;BME280;43423;46.510;6.686;2022-08-25T05:43:47;96429.44;;;19.08;65.72
57594;BME280;43423;46.510;6.686;2022-08-25T05:46:14;96436.09;;;19.18;65.23
57594;BME280;43423;46.510;6.686;2022-08-25T05:48:40;96425.69;;;19.32;65.13
57594;BME280;43423;46.510;6.686;2022-08-25T05:51:08;96435.63;;;19.54;64.56
57594;BME280;43423;46.510;6.686;2022-08-25T05:53:36;96440.31;;;19.72;64.57
57594;BME280;43423;46.510;6.686;2022-08-25T05:56:02;96439.66;;;19.79;64.81
57594;BME280;43423;46.510;6.686;2022-08-25T05:58:29;96439.25;;;19.75;65.32
57594;BME280;43423;46.510;6.686;2022-08-25T06:00:57;96433.06;;;19.90;65.06
57594;BME280;43423;46.510;6.686;2022-08-25T06:03:22;96423.88;;;20.16;64.95
57594;BME280;43423;46.510;6.686;2022-08-25T06:05:48;96437.22;;;20.52;62.76
57594;BME280;43423;46.510;6.686;2022-08-25T06:08:15;96433.91;;;20.82;61.79
57594;BME280;43423;46.510;6.686;2022-08-25T06:10:40;96437.06;;;21.07;60.47
57594;BME280;43423;46.510;6.686;2022-08-25T06:13:06;96416.59;;;21.12;60.72
57594;BME280;43423;46.510;6.686;2022-08-25T06:15:32;96436.06;;;21.25;60.46
57594;BME280;43423;46.510;6.686;2022-08-25T06:17:58;96437.97;;;21.30;59.31
57594;BME280;43423;46.510;6.686;2022-08-25T06:20:27;96431.53;;;21.43;58.77
57594;BME280;43423;46.510;6.686;2022-08-25T06:22:53;96443.53;;;21.59;59.24
57594;BME280;43423;46.510;6.686;2022-08-25T06:25:21;96439.03;;;21.63;58.42
57594;BME280;43423;46.510;6.686;2022-08-25T06:27:48;96439.69;;;21.85;57.98
57594;BME280;43423;46.510;6.686;2022-08-25T06:30:15;96445.53;;;22.02;58.09
57594;BME280;43423;46.510;6.686;2022-08-25T06:32:43;96433.28;;;22.13;58.44
57594;BME280;43423;46.510;6.686;2022-08-25T06:35:16;96436.09;;;22.28;57.35
57594;BME280;43423;46.510;6.686;2022-08-25T06:37:45;96427.50;;;22.41;57.39
57594;BME280;43423;46.510;6.686;2022-08-25T06:40:11;96436.47;;;22.47;57.58
57594;BME280;43423;46.510;6.686;2022-08-25T06:42:38;96432.38;;;22.64;57.67
57594;BME280;43423;46.510;6.686;2022-08-25T06:45:04;96416.28;;;22.79;57.12
57594;BME280;43423;46.510;6.686;2022-08-25T06:47:30;96423.94;;;22.79;57.35
57594;BME280;43423;46.510;6.686;2022-08-25T06:49:56;96428.28;;;22.88;56.35
57594;BME280;43423;46.510;6.686;2022-08-25T06:52:23;96434.03;;;22.97;56.51
57594;BME280;43423;46.510;6.686;2022-08-25T06:54:48;96436.50;;;22.93;56.42
57594;BME280;43423;46.510;6.686;2022-08-25T06:57:14;96428.41;;;23.12;56.32
57594;BME280;43423;46.510;6.686;2022-08-25T06:59:40;96440.78;;;23.02;56.39
57594;BME280;43423;46.510;6.686;2022-08-25T07:02:06;96436.09;;;23.12;56.92
57594;BME280;43423;46.510;6.686;2022-08-25T07:04:33;96447.31;;;23.04;56.57
57594;BME280;43423;46.510;6.686;2022-08-25T07:06:59;96452.72;;;23.10;56.51
57594;BME280;43423;46.510;6.686;2022-08-25T07:09:25;96446.56;;;23.11;57.18
57594;BME280;43423;46.510;6.686;2022-08-25T07:11:50;96444.28;;;23.25;56.94
57594;BME280;43423;46.510;6.686;2022-08-25T07:14:17;96445.22;;;23.20;56.06
57594;BME280;43423;46.510;6.686;2022-08-25T07:16:43;96444.09;;;23.31;56.97
57594;BME280;43423;46.510;6.686;2022-08-25T07:19:09;96434.97;;;23.15;55.60
57594;BME280;43423;46.510;6.686;2022-08-25T07:21:37;96450.28;;;23.06;55.66
57594;BME280;43423;46.510;6.686;2022-08-25T07:24:05;96441.34;;;23.08;55.76
57594;BME280;43423;46.510;6.686;2022-08-25T07:26:32;96449.19;;;23.09;56.40
57594;BME280;43423;46.510;6.686;2022-08-25T07:29:03;96446.53;;;23.27;55.62
57594;BME280;43423;46.510;6.686;2022-08-25T07:31:29;96445.94;;;23.28;54.86
57594;BME280;43423;46.510;6.686;2022-08-25T07:33:54;96435.88;;;23.25;54.93
57594;BME280;43423;46.510;6.686;2022-08-25T07:36:39;96429.50;;;23.32;54.18
57594;BME280;43423;46.510;6.686;2022-08-25T07:39:04;96434.00;;;23.20;55.43
57594;BME280;43423;46.510;6.686;2022-08-25T07:41:39;96436.09;;;23.12;55.97
57594;BME280;43423;46.510;6.686;2022-08-25T07:44:06;96440.78;;;23.09;55.68
57594;BME280;43423;46.510;6.686;2022-08-25T07:46:32;96450.06;;;23.27;55.64
57594;BME280;43423;46.510;6.686;2022-08-25T07:48:58;96446.53;;;23.19;54.58
57594;BME280;43423;46.510;6.686;2022-08-25T07:51:24;96440.53;;;23.30;54.99
57594;BME280;43423;46.510;6.686;2022-08-25T07:53:49;96447.25;;;23.35;54.42
57594;BME280;43423;46.510;6.686;2022-08-25T07:56:16;96435.31;;;23.27;55.86
57594;BME280;43423;46.510;6.686;2022-08-25T07:58:42;96454.78;;;23.09;55.92
57594;BME280;43423;46.510;6.686;2022-08-25T08:01:15;96450.09;;;23.12;56.00
57594;BME280;43423;46.510;6.686;2022-08-25T08:03:41;96457.19;;;23.21;56.64
57594;BME280;43423;46.510;6.686;2022-08-25T08:06:09;96460.19;;;23.23;55.65
57594;BME280;43423;46.510;6.686;2022-08-25T08:08:39;96457.03;;;23.03;55.59
57594;BME280;43423;46.510;6.686;2022-08-25T08:11:24;96449.00;;;23.15;57.60
57594;BME280;43423;46.510;6.686;2022-08-25T08:13:52;96452.09;;;23.42;56.00
57594;BME280;43423;46.510;6.686;2022-08-25T08:16:20;96459.91;;;23.59;54.82
57594;BME280;43423;46.510;6.686;2022-08-25T08:18:46;96460.66;;;23.52;55.73
57594;BME280;43423;46.510;6.686;2022-08-25T08:21:15;96456.81;;;23.32;56.04
57594;BME280;43423;46.510;6.686;2022-08-25T08:23:41;96449.13;;;23.40;56.18
57594;BME280;43423;46.510;6.686;2022-08-25T08:26:06;96453.56;;;23.51;56.68
57594;BME280;43423;46.510;6.686;2022-08-25T08:28:32;96457.84;;;23.52;56.09
57594;BME280;43423;46.510;6.686;2022-08-25T08:30:58;96463.16;;;23.40;57.11
57594;BME280;43423;46.510;6.686;2022-08-25T08:33:24;96453.03;;;23.37;56.96
57594;BME280;43423;46.510;6.686;2022-08-25T08:36:01;96453.53;;;23.66;56.84
57594;BME280;43423;46.510;6.686;2022-08-25T08:38:28;96459.31;;;23.68;56.69
57594;BME280;43423;46.510;6.686;2022-08-25T08:41:26;96458.41;;;23.65;55.92
57594;BME280;43423;46.510;6.686;2022-08-25T08:52:59;96445.06;;;23.81;56.23
57594;BME280;43423;46.510;6.686;2022-08-25T08:55:42;96441.63;;;23.90;55.82
57594;BME280;43423;46.510;6.686;2022-08-25T08:58:33;96443.63;;;24.05;55.55
57594;BME280;43423;46.510;6.686;2022-08-25T09:01:00;96444.44;;;23.90;55.24
57594;BME280;43423;46.510;6.686;2022-08-25T09:03:39;96452.28;;;23.92;55.69
57594;BME280;43423;46.510;6.686;2022-08-25T09:06:19;96454.28;;;23.66;55.49
57594;BME280;43423;46.510;6.686;2022-08-25T09:08:46;96446.06;;;23.53;56.79
57594;BME280;43423;46.510;6.686;2022-08-25T09:11:41;96446.84;;;23.46;56.76
57594;BME280;43423;46.510;6.686;2022-08-25T09:14:20;96439.91;;;23.55;56.90
57594;BME280;43423;46.510;6.686;2022-08-25T09:25:29;96436.44;;;23.87;56.09
57594;BME280;43423;46.510;6.686;2022-08-25T09:33:34;96437.16;;;24.20;55.23
57594;BME280;43423;46.510;6.686;2022-08-25T09:35:59;96446.44;;;24.38;55.57
57594;BME280;43423;46.510;6.686;2022-08-25T09:38:26;96445.13;;;24.06;55.31
57594;BME280;43423;46.510;6.686;2022-08-25T09:40:55;96440.09;;;24.30;55.33
57594;BME280;43423;46.510;6.686;2022-08-25T09:43:28;96445.13;;;24.06;56.33
57594;BME280;43423;46.510;6.686;2022-08-25T09:45:59;96444.41;;;24.31;55.22
57594;BME280;43423;46.510;6.686;2022-08-25T09:48:43;96432.75;;;24.42;54.51
57594;BME280;43423;46.510;6.686;2022-08-25T09:51:26;96435.63;;;24.59;53.16
57594;BME280;43423;46.510;6.686;2022-08-25T09:56:25;96441.63;;;24.81;53.16
57594;BME280;43423;46.510;6.686;2022-08-25T09:58:52;96450.41;;;25.02;53.24
57594;BME280;43423;46.510;6.686;2022-08-25T10:01:20;96432.06;;;25.01;54.11
57594;BME280;43423;46.510;6.686;2022-08-25T10:06:18;96425.47;;;25.06;51.72
57594;BME280;43423;46.510;6.686;2022-08-25T10:11:11;96423.56;;;25.09;51.63
57594;BME280;43423;46.510;6.686;2022-08-25T10:13:47;96416.88;;;25.21;52.17
57594;BME280;43423;46.510;6.686;2022-08-25T10:16:28;96418.59;;;25.17;51.61
57594;BME280;43423;46.510;6.686;2022-08-25T10:19:13;96408.91;;;25.27;51.06
57594;BME280;43423;46.510;6.686;2022-08-25T10:22:11;96410.09;;;25.24;50.36
57594;BME280;43423;46.510;6.686;2022-08-25T10:24:39;96400.81;;;25.49;50.93
57594;BME280;43423;46.510;6.686;2022-08-25T10:27:13;96409.75;;;25.55;48.24
57594;BME280;43423;46.510;6.686;2022-08-25T10:30:14;96408.47;;;25.66;50.61
57594;BME280;43423;46.510;6.686;2022-08-25T10:35:41;96398.56;;;25.47;48.73
57594;BME280;43423;46.510;6.686;2022-08-25T10:38:33;96389.09;;;25.70;48.41
57594;BME280;43423;46.510;6.686;2022-08-25T10:46:49;96385.88;;;25.73;47.41
57594;BME280;43423;46.510;6.686;2022-08-25T10:49:29;96379.16;;;25.69;47.31
57594;BME280;43423;46.510;6.686;2022-08-25T10:52:04;96371.97;;;26.02;44.51
57594;BME280;43423;46.510;6.686;2022-08-25T10:54:59;96373.25;;;25.92;46.40
57594;BME280;43423;46.510;6.686;2022-08-25T10:57:37;96366.34;;;25.75;47.57
57594;BME280;43423;46.510;6.686;2022-08-25T11:00:07;96358.69;;;25.85;44.27
57594;BME280;43423;46.510;6.686;2022-08-25T11:03:04;96359.28;;;25.84;45.08
57594;BME280;43423;46.510;6.686;2022-08-25T11:05:42;96353.47;;;25.82;45.71
57594;BME280;43423;46.510;6.686;2022-08-25T11:08:15;96346.22;;;26.15;44.79
57594;BME280;43423;46.510;6.686;2022-08-25T11:10:47;96351.25;;;26.07;45.62
57594;BME280;43423;46.510;6.686;2022-08-25T11:13:36;96352.50;;;25.97;45.80
57594;BME280;43423;46.510;6.686;2022-08-25T11:16:09;96342.19;;;26.09;44.76
57594;BME280;43423;46.510;6.686;2022-08-25T11:18:43;96346.03;;;26.40;44.13
57594;BME280;43423;46.510;6.686;2022-08-25T11:21:20;96339.34;;;26.46;43.74
57594;BME280;43423;46.510;6.686;2022-08-25T11:24:01;96335.06;;;26.44;44.60
57594;BME280;43423;46.510;6.686;2022-08-25T11:26:36;96337.81;;;26.71;44.36
57594;BME280;43423;46.510;6.686;2022-08-25T11:29:19;96321.31;;;26.58;43.98
57594;BME280;43423;46.510;6.686;2022-08-25T11:31:51;96321.91;;;26.57;44.74
57594;BME280;43423;46.510;6.686;2022-08-25T11:34:17;96321.19;;;26.85;43.41
57594;BME280;43423;46.510;6.686;2022-08-25T11:36:57;96321.63;;;26.91;43.29
57594;BME280;43423;46.510;6.686;2022-08-25T11:50:31;96309.03;;;27.21;41.80
57594;BME280;43423;46.510;6.686;2022-08-25T11:53:21;96309.75;;;26.93;41.69
57594;BME280;43423;46.510;6.686;2022-08-25T11:55:51;96313.31;;;26.93;42.85
57594;BME280;43423;46.510;6.686;2022-08-25T12:00:53;96310.47;;;26.93;44.45
57594;BME280;43423;46.510;6.686;2022-08-25T12:06:25;96314.50;;;26.81;42.17
57594;BME280;43423;46.510;6.686;2022-08-25T12:16:59;96313.63;;;27.17;43.38
57594;BME280;43423;46.510;6.686;2022-08-25T12:35:09;96303.38;;;27.02;43.03
57594;BME280;43423;46.510;6.686;2022-08-25T12:38:03;96297.56;;;26.71;43.56
57594;BME280;43423;46.510;6.686;2022-08-25T12:40:34;96292.69;;;26.91;44.30
57594;BME280;43423;46.510;6.686;2022-08-25T12:43:10;96291.34;;;26.63;43.51
57594;BME280;43423;46.510;6.686;2022-08-25T12:45:46;96289.56;;;26.96;43.38
57594;BME280;43423;46.510;6.686;2022-08-25T12:50:58;96281.38;;;27.39;43.36
57594;BME280;43423;46.510;6.686;2022-08-25T12:53:49;96277.38;;;27.42;43.12
57594;BME280;43423;46.510;6.686;2022-08-25T12:57:18;96276.72;;;27.53;41.84
57594;BME280;43423;46.510;6.686;2022-08-25T12:59:23;96260.94;;;27.70;43.06
57594;BME280;43423;46.510;6.686;2022-08-25T13:10:47;96254.53;;;28.10;42.88
57594;BME280;43423;46.510;6.686;2022-08-25T13:15:57;96252.63;;;28.03;43.62
57594;BME280;43423;46.510;6.686;2022-08-25T13:18:29;96251.50;;;28.18;40.89
57594;BME280;43423;46.510;6.686;2022-08-25T13:21:08;96251.50;;;28.18;42.54
57594;BME280;43423;46.510;6.686;2022-08-25T13:23:41;96243.72;;;28.28;42.41
57594;BME280;43423;46.510;6.686;2022-08-25T13:26:09;96241.38;;;27.93;41.94
57594;BME280;43423;46.510;6.686;2022-08-25T13:28:39;96245.13;;;27.86;42.11
57594;BME280;43423;46.510;6.686;2022-08-25T13:31:13;96234.00;;;27.78;42.74
57594;BME280;43423;46.510;6.686;2022-08-25T13:33:49;96238.53;;;27.52;43.22
57594;BME280;43423;46.510;6.686;2022-08-25T13:36:16;96225.44;;;26.87;44.97
57594;BME280;43423;46.510;6.686;2022-08-25T13:39:12;96226.44;;;27.02;44.81
57594;BME280;43423;46.510;6.686;2022-08-25T13:41:43;96222.47;;;27.05;43.91
57594;BME280;43423;46.510;6.686;2022-08-25T13:44:11;96227.78;;;27.20;44.03
57594;BME280;43423;46.510;6.686;2022-08-25T13:46:37;96220.44;;;27.46;43.56
57594;BME280;43423;46.510;6.686;2022-08-25T13:49:05;96222.44;;;27.65;44.18
57594;BME280;43423;46.510;6.686;2022-08-25T13:51:31;96203.44;;;27.55;44.17
57594;BME280;43423;46.510;6.686;2022-08-25T13:54:03;96209.09;;;27.55;43.16
57594;BME280;43423;46.510;6.686;2022-08-25T13:56:35;96213.81;;;27.72;43.65
57594;BME280;43423;46.510;6.686;2022-08-25T13:59:04;96211.31;;;27.67;42.80
57594;BME280;43423;46.510;6.686;2022-08-25T14:01:33;96209.25;;;27.67;41.22
57594;BME280;43423;46.510;6.686;2022-08-25T14:04:31;96207.41;;;28.03;41.10
57594;BME280;43423;46.510;6.686;2022-08-25T14:09:50;96207.09;;;27.77;43.82
57594;BME280;43423;46.510;6.686;2022-08-25T14:12:39;96210.72;;;27.59;43.98
57594;BME280;43423;46.510;6.686;2022-08-25T14:18:13;96197.34;;;27.69;43.98
57594;BME280;43423;46.510;6.686;2022-08-25T14:20:46;96193.03;;;27.68;43.40
57594;BME280;43423;46.510;6.686;2022-08-25T14:23:16;96195.06;;;27.77;44.12
57594;BME280;43423;46.510;6.686;2022-08-25T14:25:42;96198.94;;;28.03;44.24
57594;BME280;43423;46.510;6.686;2022-08-25T14:28:13;96180.38;;;27.69;43.43
57594;BME280;43423;46.510;6.686;2022-08-25T14:30:43;96187.97;;;27.57;44.27
57594;BME280;43423;46.510;6.686;2022-08-25T14:33:10;96180.44;;;27.49;44.14
57594;BME280;43423;46.510;6.686;2022-08-25T14:35:36;96177.47;;;27.47;44.44
57594;BME280;43423;46.510;6.686;2022-08-25T14:38:08;96179.81;;;27.61;46.07
57594;BME280;43423;46.510;6.686;2022-08-25T14:40:34;96173.16;;;27.46;46.78
57594;BME280;43423;46.510;6.686;2022-08-25T14:42:59;96186.53;;;27.46;48.42
57594;BME280;43423;46.510;6.686;2022-08-25T14:45:25;96170.44;;;27.27;48.47
57594;BME280;43423;46.510;6.686;2022-08-25T14:47:51;96172.78;;;27.31;49.05
57594;BME280;43423;46.510;6.686;2022-08-25T14:50:17;96177.41;;;27.26;47.76
57594;BME280;43423;46.510;6.686;2022-08-25T14:52:43;96167.16;;;27.21;47.44
57594;BME280;43423;46.510;6.686;2022-08-25T14:55:09;96162.88;;;27.20;48.94
57594;BME280;43423;46.510;6.686;2022-08-25T14:57:35;96162.44;;;27.14;49.04
57594;BME280;43423;46.510;6.686;2022-08-25T15:00:02;96155.59;;;27.17;47.27
57594;BME280;43423;46.510;6.686;2022-08-25T15:02:28;96164.47;;;27.23;46.96
57594;BME280;43423;46.510;6.686;2022-08-25T15:05:02;96168.69;;;27.03;46.48